createdAt,value
2023-02-14T00:00:02.475Z,3.71
2023-02-14T00:02:29.149Z,3.69
2023-02-14T00:04:55.818Z,3.65
2023-02-14T00:07:22.411Z,3.63
2023-02-14T00:09:49.008Z,3.60
2023-02-14T00:12:15.542Z,3.59
2023-02-14T00:15:00.903Z,3.57
2023-02-14T00:17:27.600Z,3.58
2023-02-14T00:19:54.116Z,3.58
2023-02-14T00:22:20.685Z,3.57
2023-02-14T00:24:47.484Z,3.54
2023-02-14T00:27:14.957Z,3.52
2023-02-14T00:29:41.546Z,3.51
2023-02-14T00:32:08.150Z,3.52
2023-02-14T00:34:36.578Z,3.50
2023-02-14T00:39:47.407Z,3.49
2023-02-14T00:42:14.703Z,3.47
2023-02-14T00:44:41.278Z,3.44
2023-02-14T00:47:07.831Z,3.42
2023-02-14T00:49:34.409Z,3.39
2023-02-14T00:52:01.028Z,3.36
2023-02-14T00:54:27.856Z,3.32
2023-02-14T00:56:54.413Z,3.28
2023-02-14T00:59:21.084Z,3.28
2023-02-14T01:01:47.654Z,3.26
2023-02-14T01:04:14.237Z,3.24
2023-02-14T01:06:40.867Z,3.25
2023-02-14T01:09:08.283Z,3.23
2023-02-14T01:11:34.976Z,3.20
2023-02-14T01:14:01.514Z,3.17
2023-02-14T01:16:30.784Z,3.14
2023-02-14T01:19:00.316Z,3.13
2023-02-14T01:21:32.649Z,3.07
2023-02-14T01:24:02.079Z,3.05
2023-02-14T01:26:29.041Z,3.03
2023-02-14T01:28:56.042Z,3.01
2023-02-14T01:31:26.359Z,2.97
2023-02-14T01:33:53.544Z,2.97
2023-02-14T01:36:24.639Z,2.95
2023-02-14T01:38:53.484Z,2.93
2023-02-14T01:41:20.496Z,2.91
2023-02-14T01:43:56.077Z,2.88
2023-02-14T01:46:23.354Z,2.87
2023-02-14T01:48:51.124Z,2.84
2023-02-14T01:51:20.039Z,2.81
2023-02-14T01:53:47.830Z,2.81
2023-02-14T01:56:21.902Z,2.78
2023-02-14T01:58:52.784Z,2.79
2023-02-14T02:01:19.911Z,2.77
2023-02-14T02:03:54.900Z,2.75
2023-02-14T02:06:54.026Z,2.73
2023-02-14T02:09:28.507Z,2.73
2023-02-14T02:11:55.328Z,2.73
2023-02-14T02:14:23.044Z,2.73
2023-02-14T02:17:07.652Z,2.67
2023-02-14T02:19:34.205Z,2.65
2023-02-14T02:22:28.716Z,2.57
2023-02-14T02:25:11.633Z,2.58
2023-02-14T02:28:04.170Z,2.52
2023-02-14T02:30:45.514Z,2.49
2023-02-14T02:33:20.061Z,2.46
2023-02-14T02:35:57.545Z,2.45
2023-02-14T02:38:38.867Z,2.40
2023-02-14T02:41:31.675Z,2.39
2023-02-14T02:44:04.227Z,2.37
2023-02-14T02:46:50.433Z,2.35
2023-02-14T02:49:42.379Z,2.33
2023-02-14T02:52:38.537Z,2.27
2023-02-14T02:55:13.900Z,2.24
2023-02-14T02:57:43.151Z,2.19
2023-02-14T03:00:13.601Z,2.17
2023-02-14T03:03:03.552Z,2.13
2023-02-14T03:05:30.956Z,2.08
2023-02-14T03:07:57.697Z,2.08
2023-02-14T03:10:27.097Z,2.07
2023-02-14T03:13:18.107Z,2.08
2023-02-14T03:16:13.457Z,2.09
2023-02-14T03:19:23.370Z,2.07
2023-02-14T03:21:54.822Z,2.05
2023-02-14T03:24:30.076Z,2.04
2023-02-14T03:27:02.021Z,2.01
2023-02-14T03:29:45.753Z,2.00
2023-02-14T03:32:39.115Z,1.96
2023-02-14T03:35:16.260Z,1.97
2023-02-14T03:37:57.942Z,1.98
2023-02-14T03:40:34.538Z,2.02
2023-02-14T03:43:07.181Z,2.05
2023-02-14T03:45:39.499Z,2.07
2023-02-14T03:48:11.052Z,2.10
2023-02-14T03:50:40.477Z,2.13
2023-02-14T03:53:10.044Z,2.15
2023-02-14T03:55:44.009Z,2.16
2023-02-14T03:58:17.003Z,2.21
2023-02-14T04:00:47.517Z,2.22
2023-02-14T04:03:18.175Z,2.21
2023-02-14T04:05:52.300Z,2.19
2023-02-14T04:08:26.231Z,2.19
2023-02-14T04:10:53.507Z,2.21
2023-02-14T04:13:21.051Z,2.22
2023-02-14T04:15:47.782Z,2.24
2023-02-14T04:18:33.342Z,2.26
2023-02-14T04:21:00.247Z,2.27
2023-02-14T04:23:27.023Z,2.28
2023-02-14T04:25:53.734Z,2.30
2023-02-14T04:28:20.294Z,2.29
2023-02-14T04:30:46.985Z,2.28
2023-02-14T04:33:13.640Z,2.27
2023-02-14T04:35:40.321Z,2.26
2023-02-14T04:38:07.166Z,2.25
2023-02-14T04:40:33.728Z,2.24
2023-02-14T04:43:01.398Z,2.26
2023-02-14T04:45:28.122Z,2.27
2023-02-14T04:47:54.697Z,2.27
2023-02-14T04:50:23.407Z,2.27
2023-02-14T04:52:50.096Z,2.27
2023-02-14T04:55:16.876Z,2.28
2023-02-14T04:57:43.765Z,2.30
2023-02-14T05:00:11.320Z,2.30
2023-02-14T05:02:38.000Z,2.31
2023-02-14T05:05:04.801Z,2.31
2023-02-14T05:07:31.355Z,2.29
2023-02-14T05:09:58.334Z,2.22
2023-02-14T05:12:24.903Z,2.13
2023-02-14T05:14:51.446Z,2.02
2023-02-14T05:17:18.030Z,1.94
2023-02-14T05:19:45.178Z,1.85
2023-02-14T05:22:11.704Z,1.80
2023-02-14T05:24:38.581Z,1.73
2023-02-14T05:27:05.151Z,1.68
2023-02-14T05:29:31.708Z,1.67
2023-02-14T05:31:58.402Z,1.65
2023-02-14T05:34:25.060Z,1.63
2023-02-14T05:36:51.683Z,1.60
2023-02-14T05:39:18.451Z,1.57
2023-02-14T05:41:44.999Z,1.55
2023-02-14T05:44:11.567Z,1.54
2023-02-14T05:46:38.198Z,1.53
2023-02-14T05:49:04.868Z,1.52
2023-02-14T05:51:31.436Z,1.51
2023-02-14T05:54:00.132Z,1.51
2023-02-14T05:56:27.103Z,1.50
2023-02-14T05:58:53.731Z,1.49
2023-02-14T06:01:20.359Z,1.47
2023-02-14T06:03:46.883Z,1.45
2023-02-14T06:06:13.402Z,1.41
2023-02-14T06:08:39.938Z,1.66
2023-02-14T06:11:06.473Z,2.72
2023-02-14T06:13:33.234Z,3.82
2023-02-14T06:15:59.767Z,4.70
2023-02-14T06:18:28.171Z,4.64
2023-02-14T06:20:55.589Z,4.21
2023-02-14T06:23:22.136Z,3.73
2023-02-14T06:25:48.824Z,3.31
2023-02-14T06:28:15.354Z,2.95
2023-02-14T06:30:42.076Z,2.63
2023-02-14T06:33:08.718Z,2.35
2023-02-14T06:35:35.257Z,2.36
2023-02-14T06:38:01.808Z,3.03
2023-02-14T06:40:28.499Z,3.04
2023-02-14T06:42:55.035Z,2.81
2023-02-14T06:45:21.565Z,2.53
2023-02-14T06:47:48.300Z,2.30
2023-02-14T06:50:14.917Z,2.11
2023-02-14T06:52:42.772Z,1.96
2023-02-14T06:55:09.474Z,1.82
2023-02-14T06:57:36.040Z,1.71
2023-02-14T07:00:02.986Z,1.60
2023-02-14T07:02:29.615Z,1.54
2023-02-14T07:04:56.176Z,1.45
2023-02-14T07:07:22.699Z,1.38
2023-02-14T07:09:49.449Z,1.36
2023-02-14T07:12:16.000Z,1.37
2023-02-14T07:14:42.556Z,1.36
2023-02-14T07:17:09.113Z,1.34
2023-02-14T07:19:35.646Z,1.35
2023-02-14T07:22:02.469Z,1.35
2023-02-14T07:24:29.048Z,1.34
2023-02-14T07:26:55.574Z,1.34
2023-02-14T07:29:22.148Z,1.35
2023-02-14T07:31:49.999Z,1.37
2023-02-14T07:34:16.647Z,1.37
2023-02-14T07:36:44.202Z,1.37
2023-02-14T07:39:11.613Z,1.39
2023-02-14T07:41:38.547Z,1.41
2023-02-14T07:44:05.287Z,1.44
2023-02-14T07:46:31.904Z,1.45
2023-02-14T07:48:58.498Z,1.43
2023-02-14T07:51:25.122Z,1.44
2023-02-14T07:53:51.694Z,1.45
2023-02-14T07:56:18.286Z,1.46
2023-02-14T07:58:45.319Z,1.51
2023-02-14T08:01:11.873Z,1.55
2023-02-14T08:03:38.469Z,1.59
2023-02-14T08:06:05.229Z,1.63
2023-02-14T08:08:32.377Z,1.70
2023-02-14T08:10:59.938Z,1.78
2023-02-14T08:13:26.738Z,1.84
2023-02-14T08:16:06.172Z,1.89
2023-02-14T08:18:39.219Z,1.92
2023-02-14T08:21:09.023Z,2.01
2023-02-14T08:23:36.746Z,2.09
2023-02-14T08:26:04.249Z,2.16
2023-02-14T08:28:32.987Z,2.27
2023-02-14T08:30:59.910Z,2.35
2023-02-14T08:33:26.830Z,2.41
2023-02-14T08:35:53.445Z,2.53
2023-02-14T08:38:20.061Z,2.63
2023-02-14T08:40:47.117Z,2.72
2023-02-14T08:43:14.113Z,2.78
2023-02-14T08:45:41.465Z,2.87
2023-02-14T08:48:10.452Z,2.95
2023-02-14T08:50:38.763Z,3.05
2023-02-14T08:53:10.025Z,3.09
2023-02-14T08:55:37.922Z,3.16
2023-02-14T08:58:05.460Z,3.21
2023-02-14T09:00:32.900Z,3.22
2023-02-14T09:02:59.953Z,3.23
2023-02-14T09:05:27.004Z,3.23
2023-02-14T09:07:56.437Z,3.25
2023-02-14T09:10:24.471Z,3.30
2023-02-14T09:12:51.890Z,3.37
2023-02-14T09:15:18.502Z,3.36
2023-02-14T09:17:45.145Z,3.40
2023-02-14T09:20:13.234Z,3.44
2023-02-14T09:22:39.985Z,3.52
2023-02-14T09:25:06.648Z,3.58
2023-02-14T09:27:33.249Z,3.67
2023-02-14T09:29:59.906Z,3.73
2023-02-14T09:32:27.282Z,3.80
2023-02-14T09:34:53.895Z,3.88
2023-02-14T09:37:20.728Z,3.95
2023-02-14T09:39:47.289Z,4.05
2023-02-14T09:42:17.246Z,4.14
2023-02-14T09:44:48.885Z,4.25
2023-02-14T09:47:36.531Z,4.33
2023-02-14T09:50:06.649Z,4.41
2023-02-14T09:52:33.353Z,4.49
2023-02-14T09:55:02.755Z,4.55
2023-02-14T09:57:29.419Z,4.58
2023-02-14T10:00:16.284Z,4.59
2023-02-14T10:03:15.124Z,4.68
2023-02-14T10:05:54.273Z,4.76
2023-02-14T10:08:42.390Z,4.80
2023-02-14T10:11:15.188Z,4.89
2023-02-14T10:13:41.660Z,4.94
2023-02-14T10:16:21.676Z,5.01
2023-02-14T10:18:59.214Z,5.12
2023-02-14T10:21:31.697Z,5.26
2023-02-14T10:24:06.927Z,5.37
2023-02-14T10:26:38.206Z,5.42
2023-02-14T10:29:13.273Z,5.49
2023-02-14T10:31:50.245Z,5.58
2023-02-14T10:34:27.097Z,5.66
2023-02-14T10:37:19.974Z,5.76
2023-02-14T10:39:59.739Z,5.90
2023-02-14T10:42:36.209Z,5.99
2023-02-14T10:45:18.056Z,6.06
2023-02-14T10:48:03.015Z,6.15
2023-02-14T10:50:47.032Z,6.25
2023-02-14T10:53:35.400Z,6.33
2023-02-14T10:56:13.318Z,6.48
2023-02-14T10:58:41.484Z,6.61
2023-02-14T11:01:16.230Z,6.75
2023-02-14T11:04:04.338Z,6.91
2023-02-14T11:06:31.416Z,7.06
2023-02-14T11:08:58.474Z,7.11
2023-02-14T11:11:38.984Z,7.19
2023-02-14T11:14:30.303Z,7.16
2023-02-14T11:16:59.264Z,7.29
2023-02-14T11:19:29.109Z,7.45
2023-02-14T11:21:58.597Z,7.56
2023-02-14T11:24:26.463Z,7.67
2023-02-14T11:26:56.135Z,7.82
2023-02-14T11:29:27.932Z,7.95
2023-02-14T11:31:55.277Z,8.09
2023-02-14T11:34:27.904Z,8.23
2023-02-14T11:36:54.507Z,8.29
2023-02-14T11:39:34.751Z,8.33
2023-02-14T11:42:04.587Z,8.46
2023-02-14T11:44:33.261Z,8.60
2023-02-14T11:47:25.442Z,8.66
2023-02-14T11:49:58.269Z,8.82
2023-02-14T11:52:29.111Z,8.91
2023-02-14T11:54:57.602Z,9.01
2023-02-14T11:57:42.265Z,9.11
2023-02-14T12:00:17.823Z,9.25
2023-02-14T12:02:49.003Z,9.41
2023-02-14T12:05:17.661Z,9.53
2023-02-14T12:07:50.452Z,9.64
2023-02-14T12:10:26.249Z,9.69
2023-02-14T12:13:25.311Z,9.75
2023-02-14T12:15:57.077Z,9.87
2023-02-14T12:19:00.856Z,9.88
2023-02-14T12:21:33.605Z,9.97
2023-02-14T12:24:17.862Z,10.05
2023-02-14T12:27:00.208Z,10.02
2023-02-14T12:29:40.049Z,10.00
2023-02-14T12:32:26.772Z,10.08
2023-02-14T12:35:27.688Z,10.04
2023-02-14T12:38:12.820Z,10.09
2023-02-14T12:40:54.332Z,10.17
2023-02-14T12:43:32.968Z,10.26
2023-02-14T12:46:21.112Z,10.37
2023-02-14T12:49:12.536Z,10.44
2023-02-14T12:51:50.449Z,10.52
2023-02-14T12:54:27.866Z,10.60
2023-02-14T12:57:09.491Z,10.69
2023-02-14T12:59:42.144Z,10.68
2023-02-14T13:02:33.693Z,10.68
2023-02-14T13:05:18.385Z,10.77
2023-02-14T13:08:03.567Z,10.89
2023-02-14T13:10:55.959Z,10.97
2023-02-14T13:13:28.585Z,11.06
2023-02-14T13:16:00.387Z,11.18
2023-02-14T13:18:51.096Z,11.25
2023-02-14T13:21:23.532Z,11.36
2023-02-14T13:23:55.991Z,11.42
2023-02-14T13:26:29.034Z,11.47
2023-02-14T13:29:02.508Z,11.62
2023-02-14T13:31:30.705Z,11.73
2023-02-14T13:34:03.636Z,11.88
2023-02-14T13:36:31.953Z,12.04
2023-02-14T13:39:00.215Z,12.25
2023-02-14T13:41:28.304Z,12.47
2023-02-14T13:43:56.416Z,12.75
2023-02-14T13:46:32.089Z,13.11
2023-02-14T13:49:18.646Z,13.48
2023-02-14T13:51:46.639Z,13.88
2023-02-14T13:56:59.966Z,14.52
2023-02-14T13:59:35.352Z,14.71
2023-02-14T14:02:29.667Z,14.95
2023-02-14T14:04:56.626Z,15.21
2023-02-14T14:07:30.905Z,15.37
2023-02-14T14:10:02.076Z,15.58
2023-02-14T14:12:28.628Z,15.82
2023-02-14T14:15:07.310Z,16.00
2023-02-14T14:18:12.908Z,16.17
2023-02-14T14:20:47.925Z,16.30
2023-02-14T14:23:33.709Z,16.34
2023-02-14T14:26:01.914Z,16.48
2023-02-14T14:28:31.549Z,16.52
2023-02-14T14:30:58.846Z,16.56
2023-02-14T14:33:30.508Z,16.63
2023-02-14T14:35:59.224Z,16.76
2023-02-14T14:38:26.961Z,16.93
2023-02-14T14:40:54.523Z,17.03
2023-02-14T14:43:33.972Z,17.17
2023-02-14T14:46:02.664Z,17.32
2023-02-14T14:48:32.611Z,17.42
2023-02-14T14:51:00.093Z,17.46
2023-02-14T14:53:42.080Z,17.47
2023-02-14T14:56:24.209Z,17.44
2023-02-14T14:58:51.176Z,17.30
2023-02-14T15:01:33.001Z,17.28
2023-02-14T15:04:19.739Z,17.23
2023-02-14T15:06:47.651Z,17.24
2023-02-14T15:09:24.301Z,17.17
2023-02-14T15:12:11.547Z,17.08
2023-02-14T15:14:43.149Z,16.92
2023-02-14T15:17:21.168Z,16.81
2023-02-14T15:19:51.809Z,16.89
2023-02-14T15:22:19.719Z,16.75
2023-02-14T15:24:47.065Z,16.25
2023-02-14T15:27:23.738Z,15.47
2023-02-14T15:30:02.098Z,14.73
2023-02-14T15:32:32.141Z,14.16
2023-02-14T15:35:01.924Z,13.63
2023-02-14T15:37:29.283Z,13.15
2023-02-14T15:39:57.128Z,12.67
2023-02-14T15:42:29.460Z,12.26
2023-02-14T15:45:33.142Z,11.83
2023-02-14T15:48:06.160Z,11.54
2023-02-14T15:50:35.398Z,11.26
2023-02-14T15:53:25.744Z,11.00
2023-02-14T15:55:52.597Z,10.77
2023-02-14T15:58:26.762Z,10.57
2023-02-14T16:00:54.048Z,10.38
2023-02-14T16:03:27.874Z,10.23
2023-02-14T16:05:54.935Z,10.10
2023-02-14T16:08:35.139Z,9.96
2023-02-14T16:11:08.906Z,9.80
2023-02-14T16:13:37.984Z,9.67
2023-02-14T16:16:09.758Z,9.54
2023-02-14T16:18:40.544Z,9.42
2023-02-14T16:21:19.281Z,9.30
2023-02-14T16:24:06.514Z,9.15
2023-02-14T16:26:35.002Z,9.10
2023-02-14T16:29:05.728Z,9.00
2023-02-14T16:31:33.212Z,8.89
2023-02-14T16:34:00.301Z,8.80
2023-02-14T16:36:30.149Z,8.69
2023-02-14T16:38:57.767Z,8.61
2023-02-14T16:41:29.406Z,8.52
2023-02-14T16:43:56.641Z,8.42
2023-02-14T16:46:28.273Z,8.33
2023-02-14T16:48:55.548Z,8.27
2023-02-14T16:51:34.084Z,8.19
2023-02-14T16:54:05.340Z,8.12
2023-02-14T16:56:34.584Z,8.03
2023-02-14T16:59:01.240Z,7.95
2023-02-14T17:01:28.563Z,7.88
2023-02-14T17:03:55.647Z,7.82
2023-02-14T17:06:27.660Z,7.75
2023-02-14T17:08:55.818Z,7.61
2023-02-14T17:11:24.243Z,7.59
2023-02-14T17:13:51.187Z,7.54
2023-02-14T17:16:18.473Z,7.48
2023-02-14T17:18:48.895Z,7.43
2023-02-14T17:21:19.519Z,7.37
2023-02-14T17:23:46.276Z,7.33
2023-02-14T17:26:14.234Z,7.29
2023-02-14T17:28:40.948Z,7.24
2023-02-14T17:31:08.233Z,7.20
2023-02-14T17:33:35.673Z,7.18
2023-02-14T17:36:12.071Z,7.11
2023-02-14T17:38:39.715Z,7.08
2023-02-14T17:41:18.597Z,6.99
2023-02-14T17:43:46.237Z,6.92
2023-02-14T17:46:14.325Z,6.85
2023-02-14T17:48:42.139Z,6.81
2023-02-14T17:51:09.676Z,6.78
2023-02-14T17:53:36.338Z,6.74
2023-02-14T17:56:14.620Z,6.71
2023-02-14T17:58:41.416Z,6.68
2023-02-14T18:01:11.340Z,6.65
2023-02-14T18:03:39.343Z,6.63
2023-02-14T18:06:06.943Z,6.60
2023-02-14T18:08:35.338Z,6.57
2023-02-14T18:11:10.330Z,6.54
2023-02-14T18:13:37.713Z,6.52
2023-02-14T18:16:06.520Z,6.49
2023-02-14T18:18:33.157Z,6.45
2023-02-14T18:21:02.314Z,6.40
2023-02-14T18:23:30.737Z,6.35
2023-02-14T18:26:01.118Z,6.29
2023-02-14T18:28:28.132Z,6.25
2023-02-14T18:30:57.158Z,6.18
2023-02-14T18:33:25.425Z,6.13
2023-02-14T18:35:52.198Z,6.09
2023-02-14T18:38:19.727Z,6.05
2023-02-14T18:40:46.843Z,6.00
2023-02-14T18:43:13.741Z,5.96
2023-02-14T18:45:40.474Z,5.91
2023-02-14T18:48:09.122Z,5.85
2023-02-14T18:50:35.729Z,5.80
2023-02-14T18:53:02.365Z,5.79
2023-02-14T18:55:28.954Z,5.75
2023-02-14T18:57:55.516Z,5.72
2023-02-14T19:00:22.668Z,5.68
2023-02-14T19:02:49.229Z,5.64
2023-02-14T19:05:15.820Z,5.60
2023-02-14T19:07:42.424Z,5.58
2023-02-14T19:10:09.891Z,5.55
2023-02-14T19:12:36.441Z,5.52
2023-02-14T19:15:03.537Z,5.47
2023-02-14T19:17:30.269Z,5.41
2023-02-14T19:19:57.272Z,5.36
2023-02-14T19:22:23.959Z,5.33
2023-02-14T19:24:53.015Z,5.29
2023-02-14T19:27:21.579Z,5.23
2023-02-14T19:29:48.326Z,5.20
2023-02-14T19:32:15.035Z,5.19
2023-02-14T19:34:41.643Z,5.15
2023-02-14T19:37:08.273Z,5.12
2023-02-14T19:39:34.878Z,5.10
2023-02-14T19:42:01.476Z,5.08
2023-02-14T19:44:29.501Z,5.06
2023-02-14T19:46:56.717Z,5.04
2023-02-14T19:49:23.459Z,4.99
2023-02-14T19:51:53.922Z,4.97
2023-02-14T19:54:22.379Z,4.93
2023-02-14T19:56:49.007Z,4.91
2023-02-14T19:59:20.332Z,4.86
2023-02-14T20:01:55.430Z,4.82
2023-02-14T20:04:27.615Z,4.79
2023-02-14T20:06:54.983Z,4.79
2023-02-14T20:09:23.486Z,4.77
2023-02-14T20:11:55.689Z,4.73
2023-02-14T20:14:25.376Z,4.71
2023-02-14T20:16:54.802Z,4.67
2023-02-14T20:19:24.261Z,4.64
2023-02-14T20:21:51.180Z,4.63
2023-02-14T20:24:21.051Z,4.60
2023-02-14T20:26:48.721Z,4.58
2023-02-14T20:29:16.322Z,4.54
2023-02-14T20:31:46.362Z,4.50
2023-02-14T20:34:14.154Z,4.49
2023-02-14T20:36:42.024Z,4.43
2023-02-14T20:39:11.119Z,4.40
2023-02-14T20:41:37.905Z,4.37
2023-02-14T20:44:09.931Z,4.35
2023-02-14T20:46:36.767Z,4.32
2023-02-14T20:49:03.980Z,4.33
2023-02-14T20:51:30.531Z,4.33
2023-02-14T20:53:58.425Z,4.33
2023-02-14T20:56:25.001Z,4.35
2023-02-14T20:58:51.600Z,4.38
2023-02-14T21:01:21.538Z,4.38
2023-02-14T21:03:53.239Z,4.38
2023-02-14T21:06:24.795Z,4.36
2023-02-14T21:08:51.902Z,4.31
2023-02-14T21:11:20.374Z,4.30
2023-02-14T21:13:47.136Z,4.26
2023-02-14T21:16:19.613Z,4.24
2023-02-14T21:18:52.359Z,4.22
2023-02-14T21:21:20.211Z,4.20
2023-02-14T21:23:49.209Z,4.16
2023-02-14T21:26:16.286Z,4.14
2023-02-14T21:28:42.842Z,4.15
2023-02-14T21:31:11.889Z,4.12
2023-02-14T21:33:38.732Z,4.12
2023-02-14T21:36:16.462Z,4.11
2023-02-14T21:38:43.771Z,4.15
2023-02-14T21:41:12.558Z,4.15
2023-02-14T21:43:41.844Z,4.17
2023-02-14T21:50:14.476Z,4.11
2023-02-14T21:52:41.061Z,4.09
2023-02-14T21:55:08.451Z,4.08
2023-02-14T21:57:35.054Z,4.06
2023-02-14T22:00:01.636Z,4.06
2023-02-14T22:02:28.276Z,4.05
2023-02-14T22:04:54.841Z,4.03
2023-02-14T22:07:21.473Z,4.01
2023-02-14T22:09:48.069Z,4.02
2023-02-14T22:12:14.583Z,4.02
2023-02-14T22:14:41.132Z,4.00
2023-02-14T22:17:07.820Z,4.03
2023-02-14T22:19:36.425Z,4.02
2023-02-14T22:22:03.950Z,3.99
2023-02-14T22:24:30.612Z,3.94
2023-02-14T22:26:57.189Z,3.94
2023-02-14T22:29:23.760Z,3.90
2023-02-14T22:31:50.543Z,3.88
2023-02-14T22:34:19.880Z,3.84
2023-02-14T22:36:46.751Z,3.80
2023-02-14T22:39:15.497Z,3.79
2023-02-14T22:41:42.507Z,3.76
2023-02-14T22:44:09.299Z,3.72
2023-02-14T22:46:36.869Z,3.70
2023-02-14T22:49:03.651Z,3.69
2023-02-14T22:51:33.192Z,3.69
2023-02-14T22:54:08.789Z,3.69
2023-02-14T22:56:39.014Z,3.70
2023-02-14T22:59:17.239Z,3.71
2023-02-14T23:01:44.424Z,3.71
2023-02-14T23:04:11.589Z,3.71
2023-02-14T23:06:38.755Z,3.71
2023-02-14T23:09:07.239Z,3.73
2023-02-14T23:11:36.036Z,3.72
2023-02-14T23:14:21.766Z,3.69
2023-02-14T23:17:07.445Z,3.66
2023-02-14T23:19:53.886Z,3.61
2023-02-14T23:22:24.397Z,3.59
2023-02-14T23:24:52.856Z,3.58
2023-02-14T23:27:22.015Z,3.59
2023-02-14T23:29:49.327Z,3.58
2023-02-14T23:32:16.308Z,3.57
2023-02-14T23:34:44.551Z,3.55
2023-02-14T23:37:13.647Z,3.51
2023-02-14T23:39:40.878Z,3.48
2023-02-14T23:42:13.808Z,3.45
2023-02-14T23:44:42.122Z,3.42
2023-02-14T23:47:10.227Z,3.38
2023-02-14T23:49:39.110Z,3.32
2023-02-14T23:52:11.034Z,3.31
2023-02-14T23:54:38.037Z,3.24
2023-02-14T23:57:05.715Z,3.28
2023-02-14T23:59:32.266Z,3.26
